sensor_id;sensor_type;location;lat;lon;timestamp;P1;durP1;ratioP1;P2;durP2;ratioP2
77010;SDS011;65945;53.148;17.956;2024-03-07T00:02:23;24.50;;;11.60;;
77010;SDS011;65945;53.148;17.956;2024-03-07T00:04:50;28.00;;;12.60;;
77010;SDS011;65945;53.148;17.956;2024-03-07T00:07:18;28.90;;;12.80;;
77010;SDS011;65945;53.148;17.956;2024-03-07T00:09:44;34.50;;;14.00;;
77010;SDS011;65945;53.148;17.956;2024-03-07T00:12:12;31.00;;;13.90;;
77010;SDS011;65945;53.148;17.956;2024-03-07T00:14:39;24.60;;;13.20;;
77010;SDS011;65945;53.148;17.956;2024-03-07T00:17:06;28.30;;;13.70;;
77010;SDS011;65945;53.148;17.956;2024-03-07T00:19:33;28.90;;;13.50;;
77010;SDS011;65945;53.148;17.956;2024-03-07T00:21:59;28.00;;;12.80;;
77010;SDS011;65945;53.148;17.956;2024-03-07T00:24:26;29.00;;;13.40;;
77010;SDS011;65945;53.148;17.956;2024-03-07T00:26:55;32.60;;;14.80;;
77010;SDS011;65945;53.148;17.956;2024-03-07T00:29:23;31.30;;;14.20;;
77010;SDS011;65945;53.148;17.956;2024-03-07T00:31:50;31.30;;;15.10;;
77010;SDS011;65945;53.148;17.956;2024-03-07T00:34:16;31.30;;;15.20;;
77010;SDS011;65945;53.148;17.956;2024-03-07T00:36:45;35.10;;;14.60;;
77010;SDS011;65945;53.148;17.956;2024-03-07T00:39:12;34.10;;;14.80;;
77010;SDS011;65945;53.148;17.956;2024-03-07T00:41:39;30.50;;;14.00;;
77010;SDS011;65945;53.148;17.956;2024-03-07T00:44:07;29.80;;;14.40;;
77010;SDS011;65945;53.148;17.956;2024-03-07T00:46:37;30.20;;;14.30;;
77010;SDS011;65945;53.148;17.956;2024-03-07T00:49:04;26.60;;;12.60;;
77010;SDS011;65945;53.148;17.956;2024-03-07T00:51:31;28.60;;;13.90;;
77010;SDS011;65945;53.148;17.956;2024-03-07T00:53:58;25.70;;;12.30;;
77010;SDS011;65945;53.148;17.956;2024-03-07T00:56:25;31.30;;;12.60;;
77010;SDS011;65945;53.148;17.956;2024-03-07T00:58:51;31.30;;;14.00;;
77010;SDS011;65945;53.148;17.956;2024-03-07T01:01:18;31.20;;;13.20;;
77010;SDS011;65945;53.148;17.956;2024-03-07T01:03:47;28.90;;;14.10;;
77010;SDS011;65945;53.148;17.956;2024-03-07T01:06:14;31.50;;;13.90;;
77010;SDS011;65945;53.148;17.956;2024-03-07T01:08:41;28.10;;;13.30;;
77010;SDS011;65945;53.148;17.956;2024-03-07T01:11:07;29.20;;;13.60;;
77010;SDS011;65945;53.148;17.956;2024-03-07T01:13:38;29.90;;;13.70;;
77010;SDS011;65945;53.148;17.956;2024-03-07T01:16:06;24.20;;;12.30;;
77010;SDS011;65945;53.148;17.956;2024-03-07T01:18:33;29.90;;;12.30;;
77010;SDS011;65945;53.148;17.956;2024-03-07T01:21:00;30.80;;;13.80;;
77010;SDS011;65945;53.148;17.956;2024-03-07T01:23:28;32.80;;;15.00;;
77010;SDS011;65945;53.148;17.956;2024-03-07T01:25:55;28.40;;;13.60;;
77010;SDS011;65945;53.148;17.956;2024-03-07T01:28:23;27.40;;;12.90;;
77010;SDS011;65945;53.148;17.956;2024-03-07T01:30:50;26.80;;;14.30;;
77010;SDS011;65945;53.148;17.956;2024-03-07T01:33:19;28.60;;;13.90;;
77010;SDS011;65945;53.148;17.956;2024-03-07T01:35:45;31.00;;;15.10;;
77010;SDS011;65945;53.148;17.956;2024-03-07T01:38:12;33.30;;;15.30;;
77010;SDS011;65945;53.148;17.956;2024-03-07T01:40:40;33.70;;;15.10;;
77010;SDS011;65945;53.148;17.956;2024-03-07T01:43:08;28.80;;;14.50;;
77010;SDS011;65945;53.148;17.956;2024-03-07T01:45:37;34.40;;;16.30;;
77010;SDS011;65945;53.148;17.956;2024-03-07T01:48:04;34.30;;;15.70;;
77010;SDS011;65945;53.148;17.956;2024-03-07T01:50:33;30.40;;;14.60;;
77010;SDS011;65945;53.148;17.956;2024-03-07T01:53:00;31.20;;;14.80;;
77010;SDS011;65945;53.148;17.956;2024-03-07T01:55:27;31.70;;;15.00;;
77010;SDS011;65945;53.148;17.956;2024-03-07T01:57:57;33.90;;;15.60;;
77010;SDS011;65945;53.148;17.956;2024-03-07T02:00:26;32.30;;;15.10;;
77010;SDS011;65945;53.148;17.956;2024-03-07T02:02:52;33.20;;;14.90;;
77010;SDS011;65945;53.148;17.956;2024-03-07T02:05:20;33.90;;;14.50;;
77010;SDS011;65945;53.148;17.956;2024-03-07T02:07:47;29.90;;;14.70;;
77010;SDS011;65945;53.148;17.956;2024-03-07T02:10:14;37.20;;;16.70;;
77010;SDS011;65945;53.148;17.956;2024-03-07T02:12:41;34.30;;;15.30;;
77010;SDS011;65945;53.148;17.956;2024-03-07T02:15:08;31.10;;;14.70;;
77010;SDS011;65945;53.148;17.956;2024-03-07T02:17:35;30.40;;;13.80;;
77010;SDS011;65945;53.148;17.956;2024-03-07T02:20:03;30.30;;;13.50;;
77010;SDS011;65945;53.148;17.956;2024-03-07T02:22:34;35.90;;;15.40;;
77010;SDS011;65945;53.148;17.956;2024-03-07T02:25:00;29.60;;;15.50;;
77010;SDS011;65945;53.148;17.956;2024-03-07T02:27:27;31.50;;;14.00;;
77010;SDS011;65945;53.148;17.956;2024-03-07T02:29:54;28.70;;;13.60;;
77010;SDS011;65945;53.148;17.956;2024-03-07T02:32:20;32.60;;;15.60;;
77010;SDS011;65945;53.148;17.956;2024-03-07T02:34:47;31.50;;;14.00;;
77010;SDS011;65945;53.148;17.956;2024-03-07T02:37:14;38.10;;;16.40;;
77010;SDS011;65945;53.148;17.956;2024-03-07T02:39:41;31.20;;;14.10;;
77010;SDS011;65945;53.148;17.956;2024-03-07T02:42:07;34.50;;;13.70;;
77010;SDS011;65945;53.148;17.956;2024-03-07T02:44:34;26.70;;;12.70;;
77010;SDS011;65945;53.148;17.956;2024-03-07T02:47:01;26.80;;;13.00;;
77010;SDS011;65945;53.148;17.956;2024-03-07T02:49:30;30.10;;;12.70;;
77010;SDS011;65945;53.148;17.956;2024-03-07T02:51:57;28.20;;;11.10;;
77010;SDS011;65945;53.148;17.956;2024-03-07T02:54:23;30.30;;;12.90;;
77010;SDS011;65945;53.148;17.956;2024-03-07T02:56:50;26.30;;;12.30;;
77010;SDS011;65945;53.148;17.956;2024-03-07T02:59:17;27.70;;;13.50;;
77010;SDS011;65945;53.148;17.956;2024-03-07T03:01:43;30.60;;;13.10;;
77010;SDS011;65945;53.148;17.956;2024-03-07T03:04:10;26.50;;;12.50;;
77010;SDS011;65945;53.148;17.956;2024-03-07T03:06:36;29.00;;;13.20;;
77010;SDS011;65945;53.148;17.956;2024-03-07T03:09:03;27.50;;;13.80;;
77010;SDS011;65945;53.148;17.956;2024-03-07T03:11:31;29.20;;;14.10;;
77010;SDS011;65945;53.148;17.956;2024-03-07T03:13:57;32.30;;;14.10;;
77010;SDS011;65945;53.148;17.956;2024-03-07T03:16:24;27.00;;;13.50;;
77010;SDS011;65945;53.148;17.956;2024-03-07T03:18:51;30.10;;;14.90;;
77010;SDS011;65945;53.148;17.956;2024-03-07T03:21:17;28.50;;;13.40;;
77010;SDS011;65945;53.148;17.956;2024-03-07T03:23:44;29.70;;;12.30;;
77010;SDS011;65945;53.148;17.956;2024-03-07T03:26:11;34.70;;;15.20;;
77010;SDS011;65945;53.148;17.956;2024-03-07T03:28:37;30.10;;;14.70;;
77010;SDS011;65945;53.148;17.956;2024-03-07T03:31:05;33.30;;;14.20;;
77010;SDS011;65945;53.148;17.956;2024-03-07T03:33:32;31.90;;;14.60;;
77010;SDS011;65945;53.148;17.956;2024-03-07T03:35:58;35.90;;;14.40;;
77010;SDS011;65945;53.148;17.956;2024-03-07T03:38:25;32.70;;;15.10;;
77010;SDS011;65945;53.148;17.956;2024-03-07T03:40:52;35.10;;;14.30;;
77010;SDS011;65945;53.148;17.956;2024-03-07T03:43:18;31.10;;;12.60;;
77010;SDS011;65945;53.148;17.956;2024-03-07T03:45:45;34.00;;;13.30;;
77010;SDS011;65945;53.148;17.956;2024-03-07T03:48:14;32.00;;;14.50;;
77010;SDS011;65945;53.148;17.956;2024-03-07T03:50:41;28.30;;;14.30;;
77010;SDS011;65945;53.148;17.956;2024-03-07T03:53:07;33.00;;;13.70;;
77010;SDS011;65945;53.148;17.956;2024-03-07T03:55:34;28.70;;;14.30;;
77010;SDS011;65945;53.148;17.956;2024-03-07T03:58:01;31.80;;;13.90;;
77010;SDS011;65945;53.148;17.956;2024-03-07T04:00:28;32.00;;;14.40;;
77010;SDS011;65945;53.148;17.956;2024-03-07T04:02:55;31.00;;;13.80;;
77010;SDS011;65945;53.148;17.956;2024-03-07T04:05:22;32.00;;;14.30;;
77010;SDS011;65945;53.148;17.956;2024-03-07T04:07:48;30.80;;;13.30;;
77010;SDS011;65945;53.148;17.956;2024-03-07T04:10:16;23.30;;;11.50;;
77010;SDS011;65945;53.148;17.956;2024-03-07T04:12:43;31.20;;;14.00;;
77010;SDS011;65945;53.148;17.956;2024-03-07T04:15:13;31.60;;;14.60;;
77010;SDS011;65945;53.148;17.956;2024-03-07T04:17:44;29.40;;;12.80;;
77010;SDS011;65945;53.148;17.956;2024-03-07T04:20:14;28.50;;;14.20;;
77010;SDS011;65945;53.148;17.956;2024-03-07T04:22:43;24.40;;;11.40;;
77010;SDS011;65945;53.148;17.956;2024-03-07T04:25:10;24.70;;;13.20;;
77010;SDS011;65945;53.148;17.956;2024-03-07T04:27:38;26.30;;;12.20;;
77010;SDS011;65945;53.148;17.956;2024-03-07T04:30:06;26.30;;;11.80;;
77010;SDS011;65945;53.148;17.956;2024-03-07T04:32:36;29.70;;;13.70;;
77010;SDS011;65945;53.148;17.956;2024-03-07T04:35:04;28.50;;;12.50;;
77010;SDS011;65945;53.148;17.956;2024-03-07T04:37:34;28.30;;;14.00;;
77010;SDS011;65945;53.148;17.956;2024-03-07T04:40:04;29.40;;;13.10;;
77010;SDS011;65945;53.148;17.956;2024-03-07T04:42:44;24.50;;;11.60;;
77010;SDS011;65945;53.148;17.956;2024-03-07T04:45:12;22.50;;;10.70;;
77010;SDS011;65945;53.148;17.956;2024-03-07T04:47:40;29.50;;;13.30;;
77010;SDS011;65945;53.148;17.956;2024-03-07T04:50:13;32.40;;;13.80;;
77010;SDS011;65945;53.148;17.956;2024-03-07T04:52:43;25.80;;;12.30;;
77010;SDS011;65945;53.148;17.956;2024-03-07T04:55:10;32.70;;;14.90;;
77010;SDS011;65945;53.148;17.956;2024-03-07T04:57:37;23.30;;;11.40;;
77010;SDS011;65945;53.148;17.956;2024-03-07T05:00:06;25.90;;;13.80;;
77010;SDS011;65945;53.148;17.956;2024-03-07T05:02:41;27.90;;;12.80;;
77010;SDS011;65945;53.148;17.956;2024-03-07T05:05:08;27.40;;;13.30;;
77010;SDS011;65945;53.148;17.956;2024-03-07T05:07:35;28.70;;;13.80;;
77010;SDS011;65945;53.148;17.956;2024-03-07T05:10:03;27.30;;;13.30;;
77010;SDS011;65945;53.148;17.956;2024-03-07T05:12:31;28.40;;;12.30;;
77010;SDS011;65945;53.148;17.956;2024-03-07T05:14:58;27.30;;;13.70;;
77010;SDS011;65945;53.148;17.956;2024-03-07T05:17:25;35.90;;;14.10;;
77010;SDS011;65945;53.148;17.956;2024-03-07T05:19:51;24.30;;;11.20;;
77010;SDS011;65945;53.148;17.956;2024-03-07T05:22:18;32.80;;;13.40;;
77010;SDS011;65945;53.148;17.956;2024-03-07T05:24:46;29.80;;;12.50;;
77010;SDS011;65945;53.148;17.956;2024-03-07T05:27:14;27.80;;;12.60;;
77010;SDS011;65945;53.148;17.956;2024-03-07T05:29:41;33.30;;;13.90;;
77010;SDS011;65945;53.148;17.956;2024-03-07T05:32:19;27.30;;;12.80;;
77010;SDS011;65945;53.148;17.956;2024-03-07T05:34:47;30.00;;;12.70;;
77010;SDS011;65945;53.148;17.956;2024-03-07T05:37:13;28.10;;;11.60;;
77010;SDS011;65945;53.148;17.956;2024-03-07T05:39:40;27.40;;;12.30;;
77010;SDS011;65945;53.148;17.956;2024-03-07T05:42:07;34.60;;;14.30;;
77010;SDS011;65945;53.148;17.956;2024-03-07T05:44:34;26.70;;;12.60;;
77010;SDS011;65945;53.148;17.956;2024-03-07T05:47:01;31.30;;;15.10;;
77010;SDS011;65945;53.148;17.956;2024-03-07T05:49:27;28.20;;;11.30;;
77010;SDS011;65945;53.148;17.956;2024-03-07T05:51:54;29.20;;;12.70;;
77010;SDS011;65945;53.148;17.956;2024-03-07T05:54:21;26.50;;;12.30;;
77010;SDS011;65945;53.148;17.956;2024-03-07T05:56:47;25.60;;;11.40;;
77010;SDS011;65945;53.148;17.956;2024-03-07T05:59:15;28.60;;;13.60;;
77010;SDS011;65945;53.148;17.956;2024-03-07T06:01:41;29.20;;;13.20;;
77010;SDS011;65945;53.148;17.956;2024-03-07T06:04:09;27.00;;;12.70;;
77010;SDS011;65945;53.148;17.956;2024-03-07T06:06:37;28.30;;;12.50;;
77010;SDS011;65945;53.148;17.956;2024-03-07T06:09:05;30.50;;;13.20;;
77010;SDS011;65945;53.148;17.956;2024-03-07T06:11:36;36.80;;;15.60;;
77010;SDS011;65945;53.148;17.956;2024-03-07T06:14:05;33.20;;;14.90;;
77010;SDS011;65945;53.148;17.956;2024-03-07T06:16:33;31.60;;;14.20;;
77010;SDS011;65945;53.148;17.956;2024-03-07T06:19:02;35.80;;;13.40;;
77010;SDS011;65945;53.148;17.956;2024-03-07T06:21:30;31.90;;;13.30;;
77010;SDS011;65945;53.148;17.956;2024-03-07T06:23:59;29.00;;;11.80;;
77010;SDS011;65945;53.148;17.956;2024-03-07T06:26:37;29.70;;;13.90;;
77010;SDS011;65945;53.148;17.956;2024-03-07T06:29:10;29.00;;;12.30;;
77010;SDS011;65945;53.148;17.956;2024-03-07T06:31:38;43.30;;;20.30;;
77010;SDS011;65945;53.148;17.956;2024-03-07T06:34:05;35.80;;;18.20;;
77010;SDS011;65945;53.148;17.956;2024-03-07T06:36:33;38.50;;;18.60;;
77010;SDS011;65945;53.148;17.956;2024-03-07T06:38:59;31.50;;;13.90;;
77010;SDS011;65945;53.148;17.956;2024-03-07T06:41:26;28.60;;;14.60;;
77010;SDS011;65945;53.148;17.956;2024-03-07T06:43:53;27.00;;;13.40;;
77010;SDS011;65945;53.148;17.956;2024-03-07T06:46:21;29.60;;;12.70;;
77010;SDS011;65945;53.148;17.956;2024-03-07T06:48:48;27.70;;;12.90;;
77010;SDS011;65945;53.148;17.956;2024-03-07T06:51:14;30.40;;;12.20;;
77010;SDS011;65945;53.148;17.956;2024-03-07T06:53:44;29.90;;;12.80;;
77010;SDS011;65945;53.148;17.956;2024-03-07T06:56:14;40.20;;;15.10;;
77010;SDS011;65945;53.148;17.956;2024-03-07T06:58:43;31.30;;;15.20;;
77010;SDS011;65945;53.148;17.956;2024-03-07T07:01:12;31.50;;;14.60;;
77010;SDS011;65945;53.148;17.956;2024-03-07T07:03:41;26.20;;;11.50;;
77010;SDS011;65945;53.148;17.956;2024-03-07T07:06:10;29.40;;;14.10;;
77010;SDS011;65945;53.148;17.956;2024-03-07T07:08:37;27.40;;;12.40;;
77010;SDS011;65945;53.148;17.956;2024-03-07T07:11:04;26.20;;;12.10;;
77010;SDS011;65945;53.148;17.956;2024-03-07T07:13:31;27.10;;;13.10;;
77010;SDS011;65945;53.148;17.956;2024-03-07T07:15:58;31.80;;;13.60;;
77010;SDS011;65945;53.148;17.956;2024-03-07T07:18:24;20.30;;;9.40;;
77010;SDS011;65945;53.148;17.956;2024-03-07T07:20:51;29.60;;;15.70;;
77010;SDS011;65945;53.148;17.956;2024-03-07T07:23:22;32.30;;;14.80;;
77010;SDS011;65945;53.148;17.956;2024-03-07T07:25:49;35.20;;;15.90;;
77010;SDS011;65945;53.148;17.956;2024-03-07T07:28:16;28.90;;;13.80;;
77010;SDS011;65945;53.148;17.956;2024-03-07T07:30:43;27.30;;;12.80;;
77010;SDS011;65945;53.148;17.956;2024-03-07T07:33:10;25.50;;;12.80;;
77010;SDS011;65945;53.148;17.956;2024-03-07T07:35:37;28.40;;;13.70;;
77010;SDS011;65945;53.148;17.956;2024-03-07T07:38:03;25.20;;;12.10;;
77010;SDS011;65945;53.148;17.956;2024-03-07T07:40:30;27.30;;;13.00;;
77010;SDS011;65945;53.148;17.956;2024-03-07T07:42:59;31.60;;;14.10;;
77010;SDS011;65945;53.148;17.956;2024-03-07T07:45:27;26.00;;;12.00;;
77010;SDS011;65945;53.148;17.956;2024-03-07T07:47:54;21.50;;;10.00;;
77010;SDS011;65945;53.148;17.956;2024-03-07T07:50:21;28.90;;;13.70;;
77010;SDS011;65945;53.148;17.956;2024-03-07T07:52:51;28.90;;;13.30;;
77010;SDS011;65945;53.148;17.956;2024-03-07T07:55:20;27.00;;;12.60;;
77010;SDS011;65945;53.148;17.956;2024-03-07T07:57:50;27.70;;;13.30;;
77010;SDS011;65945;53.148;17.956;2024-03-07T08:00:22;24.90;;;12.80;;
77010;SDS011;65945;53.148;17.956;2024-03-07T08:02:55;25.30;;;12.20;;
77010;SDS011;65945;53.148;17.956;2024-03-07T08:05:24;26.70;;;12.50;;
77010;SDS011;65945;53.148;17.956;2024-03-07T08:07:52;29.50;;;13.10;;
77010;SDS011;65945;53.148;17.956;2024-03-07T08:10:24;23.90;;;12.80;;
77010;SDS011;65945;53.148;17.956;2024-03-07T08:12:52;27.70;;;13.20;;
77010;SDS011;65945;53.148;17.956;2024-03-07T08:15:19;28.00;;;12.30;;
77010;SDS011;65945;53.148;17.956;2024-03-07T08:17:46;29.20;;;13.30;;
77010;SDS011;65945;53.148;17.956;2024-03-07T08:20:15;26.80;;;12.90;;
77010;SDS011;65945;53.148;17.956;2024-03-07T08:22:44;21.30;;;11.50;;
77010;SDS011;65945;53.148;17.956;2024-03-07T08:25:12;28.70;;;12.80;;
77010;SDS011;65945;53.148;17.956;2024-03-07T08:27:41;24.50;;;11.80;;
77010;SDS011;65945;53.148;17.956;2024-03-07T08:30:09;22.20;;;11.80;;
77010;SDS011;65945;53.148;17.956;2024-03-07T08:35:08;24.00;;;10.80;;
77010;SDS011;65945;53.148;17.956;2024-03-07T08:37:36;17.50;;;8.80;;
77010;SDS011;65945;53.148;17.956;2024-03-07T08:40:03;22.50;;;11.60;;
77010;SDS011;65945;53.148;17.956;2024-03-07T08:42:31;24.60;;;12.00;;
77010;SDS011;65945;53.148;17.956;2024-03-07T08:45:00;23.00;;;13.00;;
77010;SDS011;65945;53.148;17.956;2024-03-07T08:47:31;24.50;;;11.60;;
77010;SDS011;65945;53.148;17.956;2024-03-07T08:49:58;21.80;;;11.10;;
77010;SDS011;65945;53.148;17.956;2024-03-07T08:52:26;24.40;;;11.30;;
77010;SDS011;65945;53.148;17.956;2024-03-07T08:54:54;21.10;;;11.10;;
77010;SDS011;65945;53.148;17.956;2024-03-07T08:57:21;19.90;;;9.80;;
77010;SDS011;65945;53.148;17.956;2024-03-07T08:59:48;22.30;;;12.50;;
77010;SDS011;65945;53.148;17.956;2024-03-07T09:02:16;23.60;;;11.60;;
77010;SDS011;65945;53.148;17.956;2024-03-07T09:04:42;24.00;;;11.00;;
77010;SDS011;65945;53.148;17.956;2024-03-07T09:07:09;20.30;;;9.60;;
77010;SDS011;65945;53.148;17.956;2024-03-07T09:09:36;23.50;;;10.90;;
77010;SDS011;65945;53.148;17.956;2024-03-07T09:12:02;21.80;;;10.10;;
77010;SDS011;65945;53.148;17.956;2024-03-07T09:14:30;24.70;;;12.00;;
77010;SDS011;65945;53.148;17.956;2024-03-07T09:16:57;17.40;;;8.60;;
77010;SDS011;65945;53.148;17.956;2024-03-07T09:19:23;17.10;;;8.60;;
77010;SDS011;65945;53.148;17.956;2024-03-07T09:21:51;19.00;;;10.00;;
77010;SDS011;65945;53.148;17.956;2024-03-07T09:24:18;20.20;;;10.50;;
77010;SDS011;65945;53.148;17.956;2024-03-07T09:26:52;19.20;;;9.90;;
77010;SDS011;65945;53.148;17.956;2024-03-07T09:29:19;23.60;;;10.70;;
77010;SDS011;65945;53.148;17.956;2024-03-07T09:31:48;19.80;;;10.50;;
77010;SDS011;65945;53.148;17.956;2024-03-07T09:34:18;27.00;;;11.00;;
77010;SDS011;65945;53.148;17.956;2024-03-07T09:36:47;17.80;;;7.40;;
77010;SDS011;65945;53.148;17.956;2024-03-07T09:39:15;17.50;;;9.10;;
77010;SDS011;65945;53.148;17.956;2024-03-07T09:41:42;20.00;;;10.20;;
77010;SDS011;65945;53.148;17.956;2024-03-07T09:44:10;21.90;;;10.10;;
77010;SDS011;65945;53.148;17.956;2024-03-07T09:46:40;18.50;;;8.40;;
77010;SDS011;65945;53.148;17.956;2024-03-07T09:49:07;13.80;;;7.30;;
77010;SDS011;65945;53.148;17.956;2024-03-07T09:51:36;27.40;;;10.00;;
77010;SDS011;65945;53.148;17.956;2024-03-07T09:54:04;18.40;;;7.40;;
77010;SDS011;65945;53.148;17.956;2024-03-07T09:56:30;18.80;;;9.80;;
77010;SDS011;65945;53.148;17.956;2024-03-07T09:59:04;16.90;;;9.20;;
77010;SDS011;65945;53.148;17.956;2024-03-07T10:01:34;11.70;;;6.70;;
77010;SDS011;65945;53.148;17.956;2024-03-07T10:04:02;13.20;;;7.00;;
77010;SDS011;65945;53.148;17.956;2024-03-07T10:06:38;13.80;;;6.80;;
77010;SDS011;65945;53.148;17.956;2024-03-07T10:09:09;19.40;;;9.90;;
77010;SDS011;65945;53.148;17.956;2024-03-07T10:11:40;14.70;;;7.70;;
77010;SDS011;65945;53.148;17.956;2024-03-07T10:14:10;15.90;;;6.10;;
77010;SDS011;65945;53.148;17.956;2024-03-07T10:16:37;19.20;;;8.90;;
77010;SDS011;65945;53.148;17.956;2024-03-07T10:19:05;16.20;;;8.30;;
77010;SDS011;65945;53.148;17.956;2024-03-07T10:21:33;12.20;;;5.60;;
77010;SDS011;65945;53.148;17.956;2024-03-07T10:24:05;13.60;;;6.10;;
77010;SDS011;65945;53.148;17.956;2024-03-07T10:26:36;14.00;;;6.90;;
77010;SDS011;65945;53.148;17.956;2024-03-07T10:29:07;17.80;;;8.20;;
77010;SDS011;65945;53.148;17.956;2024-03-07T10:31:36;21.20;;;9.80;;
77010;SDS011;65945;53.148;17.956;2024-03-07T10:34:05;14.70;;;6.50;;
77010;SDS011;65945;53.148;17.956;2024-03-07T10:36:34;22.00;;;8.60;;
77010;SDS011;65945;53.148;17.956;2024-03-07T10:39:01;12.30;;;5.50;;
77010;SDS011;65945;53.148;17.956;2024-03-07T10:41:49;13.80;;;6.50;;
77010;SDS011;65945;53.148;17.956;2024-03-07T10:44:20;10.80;;;5.20;;
77010;SDS011;65945;53.148;17.956;2024-03-07T10:46:57;13.10;;;6.40;;
77010;SDS011;65945;53.148;17.956;2024-03-07T10:49:27;14.10;;;7.00;;
77010;SDS011;65945;53.148;17.956;2024-03-07T10:52:06;9.80;;;5.00;;
77010;SDS011;65945;53.148;17.956;2024-03-07T10:54:53;10.70;;;5.20;;
77010;SDS011;65945;53.148;17.956;2024-03-07T10:57:49;11.60;;;5.10;;
77010;SDS011;65945;53.148;17.956;2024-03-07T11:00:21;13.00;;;6.90;;
77010;SDS011;65945;53.148;17.956;2024-03-07T11:03:02;13.20;;;5.70;;
77010;SDS011;65945;53.148;17.956;2024-03-07T11:05:33;13.60;;;6.60;;
77010;SDS011;65945;53.148;17.956;2024-03-07T11:08:01;15.20;;;7.20;;
77010;SDS011;65945;53.148;17.956;2024-03-07T11:10:38;11.10;;;5.20;;
77010;SDS011;65945;53.148;17.956;2024-03-07T11:13:06;12.20;;;5.80;;
77010;SDS011;65945;53.148;17.956;2024-03-07T11:15:36;10.00;;;5.40;;
77010;SDS011;65945;53.148;17.956;2024-03-07T11:18:05;14.00;;;6.60;;
77010;SDS011;65945;53.148;17.956;2024-03-07T11:20:35;15.10;;;7.50;;
77010;SDS011;65945;53.148;17.956;2024-03-07T11:25:55;11.80;;;6.20;;
77010;SDS011;65945;53.148;17.956;2024-03-07T11:28:31;11.00;;;5.00;;
77010;SDS011;65945;53.148;17.956;2024-03-07T11:33:37;19.20;;;8.60;;
77010;SDS011;65945;53.148;17.956;2024-03-07T11:36:07;18.60;;;8.00;;
77010;SDS011;65945;53.148;17.956;2024-03-07T11:38:34;14.70;;;7.00;;
77010;SDS011;65945;53.148;17.956;2024-03-07T11:41:01;13.20;;;6.50;;
77010;SDS011;65945;53.148;17.956;2024-03-07T11:43:31;11.50;;;5.80;;
77010;SDS011;65945;53.148;17.956;2024-03-07T11:45:59;16.70;;;7.40;;
77010;SDS011;65945;53.148;17.956;2024-03-07T11:48:26;17.40;;;7.80;;
77010;SDS011;65945;53.148;17.956;2024-03-07T11:50:52;15.10;;;7.70;;
77010;SDS011;65945;53.148;17.956;2024-03-07T11:53:21;15.60;;;7.30;;
77010;SDS011;65945;53.148;17.956;2024-03-07T11:55:48;15.20;;;7.00;;
77010;SDS011;65945;53.148;17.956;2024-03-07T11:58:15;17.00;;;8.50;;
77010;SDS011;65945;53.148;17.956;2024-03-07T12:00:48;12.40;;;7.10;;
77010;SDS011;65945;53.148;17.956;2024-03-07T12:03:18;13.90;;;7.40;;
77010;SDS011;65945;53.148;17.956;2024-03-07T12:05:51;13.30;;;7.10;;
77010;SDS011;65945;53.148;17.956;2024-03-07T12:08:18;17.10;;;7.70;;
77010;SDS011;65945;53.148;17.956;2024-03-07T12:10:49;16.30;;;8.00;;
77010;SDS011;65945;53.148;17.956;2024-03-07T12:13:20;17.20;;;8.60;;
77010;SDS011;65945;53.148;17.956;2024-03-07T12:15:47;18.40;;;10.80;;
77010;SDS011;65945;53.148;17.956;2024-03-07T12:18:13;20.40;;;9.40;;
77010;SDS011;65945;53.148;17.956;2024-03-07T12:20:40;13.50;;;7.10;;
77010;SDS011;65945;53.148;17.956;2024-03-07T12:23:09;13.60;;;7.00;;
77010;SDS011;65945;53.148;17.956;2024-03-07T12:25:35;12.50;;;6.20;;
77010;SDS011;65945;53.148;17.956;2024-03-07T12:28:03;13.80;;;5.80;;
77010;SDS011;65945;53.148;17.956;2024-03-07T12:33:16;21.40;;;9.90;;
77010;SDS011;65945;53.148;17.956;2024-03-07T12:35:44;19.90;;;10.80;;
77010;SDS011;65945;53.148;17.956;2024-03-07T12:38:13;18.60;;;9.40;;
77010;SDS011;65945;53.148;17.956;2024-03-07T12:40:42;13.90;;;7.30;;
77010;SDS011;65945;53.148;17.956;2024-03-07T12:43:16;14.50;;;7.30;;
77010;SDS011;65945;53.148;17.956;2024-03-07T12:45:50;16.10;;;8.00;;
77010;SDS011;65945;53.148;17.956;2024-03-07T12:48:18;14.20;;;6.70;;
77010;SDS011;65945;53.148;17.956;2024-03-07T12:50:48;17.00;;;6.70;;
77010;SDS011;65945;53.148;17.956;2024-03-07T12:53:22;19.50;;;7.70;;
77010;SDS011;65945;53.148;17.956;2024-03-07T12:55:51;17.30;;;8.70;;
77010;SDS011;65945;53.148;17.956;2024-03-07T12:58:18;16.80;;;8.10;;
77010;SDS011;65945;53.148;17.956;2024-03-07T13:00:52;15.90;;;7.70;;
77010;SDS011;65945;53.148;17.956;2024-03-07T13:03:22;16.30;;;6.90;;
77010;SDS011;65945;53.148;17.956;2024-03-07T13:05:49;13.50;;;6.50;;
77010;SDS011;65945;53.148;17.956;2024-03-07T13:08:16;16.20;;;8.00;;
77010;SDS011;65945;53.148;17.956;2024-03-07T13:10:42;17.20;;;7.50;;
77010;SDS011;65945;53.148;17.956;2024-03-07T13:13:09;17.10;;;7.90;;
77010;SDS011;65945;53.148;17.956;2024-03-07T13:15:37;18.90;;;9.00;;
77010;SDS011;65945;53.148;17.956;2024-03-07T13:18:05;14.90;;;8.00;;
77010;SDS011;65945;53.148;17.956;2024-03-07T13:20:33;12.50;;;6.30;;
77010;SDS011;65945;53.148;17.956;2024-03-07T13:23:00;18.00;;;7.20;;
77010;SDS011;65945;53.148;17.956;2024-03-07T13:25:27;15.40;;;7.70;;
77010;SDS011;65945;53.148;17.956;2024-03-07T13:30:30;15.30;;;8.30;;
77010;SDS011;65945;53.148;17.956;2024-03-07T13:32:57;17.80;;;8.60;;
77010;SDS011;65945;53.148;17.956;2024-03-07T13:35:25;20.60;;;9.30;;
77010;SDS011;65945;53.148;17.956;2024-03-07T13:37:53;16.80;;;8.60;;
77010;SDS011;65945;53.148;17.956;2024-03-07T13:40:22;19.20;;;8.70;;
77010;SDS011;65945;53.148;17.956;2024-03-07T13:42:57;13.90;;;6.70;;
77010;SDS011;65945;53.148;17.956;2024-03-07T13:45:27;16.80;;;9.20;;
77010;SDS011;65945;53.148;17.956;2024-03-07T13:47:58;15.40;;;8.60;;
77010;SDS011;65945;53.148;17.956;2024-03-07T13:50:26;22.00;;;9.90;;
77010;SDS011;65945;53.148;17.956;2024-03-07T13:52:55;17.20;;;8.70;;
77010;SDS011;65945;53.148;17.956;2024-03-07T13:58:50;17.30;;;9.50;;
77010;SDS011;65945;53.148;17.956;2024-03-07T14:10:35;18.60;;;9.20;;
77010;SDS011;65945;53.148;17.956;2024-03-07T14:16:18;16.50;;;8.20;;
77010;SDS011;65945;53.148;17.956;2024-03-07T14:22:00;19.00;;;8.60;;
77010;SDS011;65945;53.148;17.956;2024-03-07T14:27:33;19.10;;;10.00;;
77010;SDS011;65945;53.148;17.956;2024-03-07T14:30:09;19.90;;;7.90;;
77010;SDS011;65945;53.148;17.956;2024-03-07T14:32:38;16.40;;;8.90;;
77010;SDS011;65945;53.148;17.956;2024-03-07T14:35:17;14.00;;;7.30;;
77010;SDS011;65945;53.148;17.956;2024-03-07T14:40:41;16.00;;;7.40;;
77010;SDS011;65945;53.148;17.956;2024-03-07T14:43:10;11.70;;;6.50;;
77010;SDS011;65945;53.148;17.956;2024-03-07T14:45:38;16.20;;;7.90;;
77010;SDS011;65945;53.148;17.956;2024-03-07T14:48:07;16.00;;;9.10;;
77010;SDS011;65945;53.148;17.956;2024-03-07T14:50:39;16.60;;;8.20;;
77010;SDS011;65945;53.148;17.956;2024-03-07T14:53:08;15.60;;;7.40;;
77010;SDS011;65945;53.148;17.956;2024-03-07T14:55:35;43.90;;;16.50;;
77010;SDS011;65945;53.148;17.956;2024-03-07T14:58:02;15.40;;;8.20;;
77010;SDS011;65945;53.148;17.956;2024-03-07T15:00:29;13.50;;;7.10;;